createdAt,value
2018-04-26T00:05:50.304Z,21.83
2018-04-26T00:11:41.015Z,21.03
2018-04-26T00:17:31.724Z,22.26
2018-04-26T00:23:22.431Z,23.27
2018-04-26T00:29:13.114Z,21.35
2018-04-26T00:35:03.854Z,20.55
2018-04-26T00:40:54.521Z,22.92
2018-04-26T00:46:45.238Z,21.83
2018-04-26T00:52:35.955Z,21.89
2018-04-26T00:58:26.709Z,19.96
2018-04-26T01:04:17.376Z,19.7
2018-04-26T01:10:08.101Z,22.65
2018-04-26T01:15:58.837Z,21.92
2018-04-26T01:21:49.512Z,22.71
2018-04-26T01:27:40.160Z,22.04
2018-04-26T01:33:30.909Z,17.31
2018-04-26T01:39:21.618Z,17.7
2018-04-26T01:45:12.386Z,17.85
2018-04-26T01:51:03.078Z,21.47
2018-04-26T01:56:53.709Z,20.91
2018-04-26T02:02:44.449Z,18.62
2018-04-26T02:08:35.140Z,19.86
2018-04-26T02:14:25.798Z,22.52
2018-04-26T02:20:16.494Z,22.6
2018-04-26T02:26:07.261Z,20.19
2018-04-26T02:31:57.933Z,22.87
2018-04-26T02:37:48.643Z,17.16
2018-04-26T02:43:39.283Z,21.57
2018-04-26T02:49:30.030Z,28.8
2018-04-26T02:55:20.660Z,23.56
2018-04-26T03:01:11.392Z,22.34
2018-04-26T03:07:02.059Z,19.02
2018-04-26T03:12:52.755Z,23.92
2018-04-26T03:18:43.418Z,25.31
2018-04-26T03:24:34.094Z,22.36
2018-04-26T03:30:24.781Z,25.17
2018-04-26T03:36:15.482Z,18.76
2018-04-26T03:42:06.170Z,21.23
2018-04-26T03:47:56.835Z,20.46
2018-04-26T03:53:47.568Z,24.52
2018-04-26T03:59:38.249Z,28.33
2018-04-26T04:05:28.898Z,24.05
2018-04-26T04:11:19.646Z,22.73
2018-04-26T04:17:10.265Z,18.02
2018-04-26T04:23:00.936Z,19.77
2018-04-26T04:28:51.640Z,22.41
2018-04-26T04:34:42.351Z,26.17
2018-04-26T04:40:32.973Z,23.19
2018-04-26T04:46:23.669Z,22.36
2018-04-26T04:52:14.342Z,19.42
2018-04-26T04:58:05.068Z,21.67
2018-04-26T05:03:55.740Z,25.42
2018-04-26T05:09:46.414Z,23.34
2018-04-26T05:15:37.101Z,21.91
2018-04-26T05:21:27.768Z,22.65
2018-04-26T05:27:18.578Z,25.69
2018-04-26T05:33:09.188Z,32.05
2018-04-26T05:38:59.873Z,35.56
2018-04-26T05:44:51.411Z,47.85
2018-04-26T05:50:41.356Z,49.84
2018-04-26T05:56:32.042Z,54.9
2018-04-26T06:02:22.782Z,44.32
2018-04-26T06:08:13.462Z,41.1
2018-04-26T06:14:04.230Z,38.88
2018-04-26T06:19:55.004Z,34.74
2018-04-26T06:25:45.709Z,32.55
2018-04-26T06:31:36.439Z,35.99
2018-04-26T06:37:27.187Z,37.94
2018-04-26T06:43:17.941Z,37.5
2018-04-26T06:49:08.694Z,32.72
2018-04-26T06:54:59.456Z,32.14
2018-04-26T07:00:50.251Z,34.34
2018-04-26T07:06:41.017Z,25.83
2018-04-26T07:12:31.866Z,34.82
2018-04-26T07:18:22.645Z,36.18
2018-04-26T07:24:13.353Z,33.18
2018-04-26T07:30:04.187Z,31.11
2018-04-26T07:35:54.985Z,29.77
2018-04-26T07:41:45.896Z,31.24
2018-04-26T07:47:36.735Z,35.67
2018-04-26T07:53:27.591Z,31.59
2018-04-26T07:59:18.440Z,34.95
2018-04-26T08:05:09.333Z,33.6
2018-04-26T08:11:00.159Z,33.01
2018-04-26T08:16:51.045Z,33.15
2018-04-26T08:22:41.966Z,28.2
2018-04-26T08:28:32.870Z,23.28
2018-04-26T08:34:23.755Z,14.82
2018-04-26T08:40:14.614Z,12.65
2018-04-26T08:46:05.507Z,11.77
2018-04-26T08:51:56.286Z,14.21
2018-04-26T08:57:47.155Z,18.32
2018-04-26T09:03:38.028Z,16.16
2018-04-26T09:09:28.803Z,15.04
2018-04-26T09:15:19.622Z,13.67
2018-04-26T09:21:10.467Z,20.05
2018-04-26T09:27:01.342Z,21.5
2018-04-26T09:32:52.180Z,15.67
2018-04-26T09:38:43.112Z,11.01
2018-04-26T09:44:33.931Z,14.77
2018-04-26T09:50:24.760Z,13.88
2018-04-26T09:56:15.615Z,15.21
2018-04-26T10:02:06.450Z,15.06
2018-04-26T10:07:57.331Z,12.05
2018-04-26T10:13:48.193Z,12.36
2018-04-26T10:19:39.072Z,14.71
2018-04-26T10:25:29.899Z,11.96
2018-04-26T10:31:20.787Z,11.68
2018-04-26T10:37:11.631Z,12.12
2018-04-26T10:43:02.536Z,11.67
2018-04-26T10:48:53.423Z,8.76
2018-04-26T10:54:44.280Z,8.6
2018-04-26T11:00:35.203Z,8.41
2018-04-26T11:06:26.017Z,10.15
2018-04-26T11:12:16.907Z,8.93
2018-04-26T11:18:07.747Z,7.39
2018-04-26T11:23:58.643Z,9.67
2018-04-26T11:29:49.516Z,7.8
2018-04-26T11:35:40.338Z,6.28
2018-04-26T11:41:31.261Z,8.26
2018-04-26T11:47:22.088Z,9.1
2018-04-26T11:53:13.022Z,7.44
2018-04-26T11:59:03.905Z,11.49
2018-04-26T12:04:54.828Z,11.19
2018-04-26T12:10:45.673Z,9.53
2018-04-26T12:16:36.504Z,7.67
2018-04-26T12:22:27.471Z,10.06
2018-04-26T12:28:18.339Z,8.73
2018-04-26T12:34:09.161Z,6.36
2018-04-26T12:40:00.067Z,8.79
2018-04-26T12:45:50.952Z,9.07
2018-04-26T12:51:41.795Z,9.95
2018-04-26T12:57:32.673Z,8.01
2018-04-26T13:03:23.453Z,9.41
2018-04-26T13:09:14.330Z,10.62
2018-04-26T13:15:05.140Z,12.27
2018-04-26T13:20:56.017Z,8.47
2018-04-26T13:26:46.865Z,11.34
2018-04-26T13:32:37.610Z,14.4
2018-04-26T13:38:28.430Z,7.91
2018-04-26T13:44:19.298Z,12.52
2018-04-26T13:50:10.083Z,10.22
2018-04-26T13:56:00.941Z,10.84
2018-04-26T14:01:51.730Z,14.55
2018-04-26T14:07:42.590Z,12.93
2018-04-26T14:13:33.360Z,10.77
2018-04-26T14:19:24.189Z,13.23
2018-04-26T14:25:15.098Z,7.72
2018-04-26T14:31:06.001Z,10.61
2018-04-26T14:36:56.925Z,10.49
2018-04-26T14:42:47.831Z,11.32
2018-04-26T14:48:38.764Z,12.56
2018-04-26T14:54:29.625Z,13.06
2018-04-26T15:00:20.510Z,11.57
2018-04-26T15:06:11.374Z,12.35
2018-04-26T15:12:02.316Z,17.27
2018-04-26T15:17:53.190Z,14.2
2018-04-26T15:23:44.090Z,13.98
2018-04-26T15:29:34.978Z,13.43
2018-04-26T15:35:25.884Z,12.55
2018-04-26T15:41:16.740Z,14.11
2018-04-26T15:47:07.642Z,12.02
2018-04-26T15:52:58.546Z,13.35
2018-04-26T15:58:49.370Z,15.69
2018-04-26T16:04:40.250Z,13.57
2018-04-26T16:10:31.158Z,13.14
2018-04-26T16:16:22.014Z,12.66
2018-04-26T16:22:12.860Z,12.01
2018-04-26T16:28:03.741Z,14.18
2018-04-26T16:33:54.589Z,11.48
2018-04-26T16:39:45.380Z,13.3
2018-04-26T16:45:36.255Z,13.45
2018-04-26T16:51:27.100Z,13.06
2018-04-26T16:57:17.940Z,13.24
2018-04-26T17:03:08.731Z,14.61
2018-04-26T17:08:59.587Z,12.26
2018-04-26T17:14:50.370Z,16.1
2018-04-26T17:20:41.224Z,14.36
2018-04-26T17:26:32.115Z,12.64
2018-04-26T17:32:22.810Z,12.12
2018-04-26T17:38:13.684Z,14.35
2018-04-26T17:44:04.438Z,15.43
2018-04-26T17:49:55.229Z,13.89
2018-04-26T17:55:46.016Z,14.83
2018-04-26T18:01:36.757Z,19.97
2018-04-26T18:07:27.534Z,15.71
2018-04-26T18:13:18.295Z,14.86
2018-04-26T18:19:09.019Z,16.61
2018-04-26T18:24:59.795Z,16.58
2018-04-26T18:30:50.550Z,19.68
2018-04-26T18:36:41.315Z,16.98
2018-04-26T18:42:32.124Z,15.01
2018-04-26T18:48:22.843Z,13.81
2018-04-26T18:54:13.576Z,16.99
2018-04-26T19:00:04.335Z,20.45
2018-04-26T19:05:55.070Z,15.46
2018-04-26T19:11:45.828Z,20.43
2018-04-26T19:17:36.542Z,17.7
2018-04-26T19:23:27.293Z,107.87
2018-04-26T19:29:18.063Z,48.53
2018-04-26T19:35:08.758Z,27
2018-04-26T19:40:59.555Z,21.53
2018-04-26T19:46:50.216Z,21.01
2018-04-26T19:52:41.036Z,23.26
2018-04-26T19:58:31.681Z,19.58
2018-04-26T20:04:22.466Z,23.54
2018-04-26T20:10:13.157Z,18.77
2018-04-26T20:16:03.881Z,100.31
2018-04-26T20:21:54.594Z,39.1
2018-04-26T20:27:45.353Z,21.74
2018-04-26T20:33:36.046Z,16.99
2018-04-26T20:39:26.772Z,19.63
2018-04-26T20:45:17.476Z,20.57
2018-04-26T20:51:08.237Z,23.04
2018-04-26T20:56:58.939Z,21.82
2018-04-26T21:02:49.652Z,22.16
2018-04-26T21:08:40.371Z,17.6
2018-04-26T21:14:31.142Z,24.58
2018-04-26T21:20:21.817Z,24.41
2018-04-26T21:26:12.550Z,16.63
2018-04-26T21:32:03.234Z,21.58
2018-04-26T21:37:53.955Z,22.13
2018-04-26T21:43:44.755Z,22.92
2018-04-26T21:49:35.354Z,21.53
2018-04-26T21:55:26.158Z,24.54
2018-04-26T22:01:16.889Z,20.02
2018-04-26T22:07:07.533Z,22.62
2018-04-26T22:12:58.216Z,19.29
2018-04-26T22:18:48.996Z,22.09
2018-04-26T22:24:39.679Z,22.7
2018-04-26T22:30:30.338Z,20.9
2018-04-26T22:36:21.076Z,19.19
2018-04-26T22:42:11.752Z,24.24
2018-04-26T22:48:02.464Z,21.24
2018-04-26T22:53:53.155Z,23
2018-04-26T22:59:44.098Z,19.68
2018-04-26T23:05:34.568Z,29.07
2018-04-26T23:11:25.318Z,18.97
2018-04-26T23:17:15.993Z,18.7
2018-04-26T23:23:06.664Z,20.23
2018-04-26T23:28:57.367Z,23.24
2018-04-26T23:34:48.093Z,17.57
2018-04-26T23:40:38.815Z,21.05
2018-04-26T23:46:29.456Z,19.97
2018-04-26T23:52:20.180Z,20.02
2018-04-26T23:58:10.885Z,21.8
